KLM41L EHAM-LIRF
Flight info
| Callsign | KLM41L |
|---|---|
| Flight time | N/A |
| Altitude | 39000 |
| Route | EDUPO Z739 MISGO DCT ASBON DCT TUSUK DCT ULNOK L607 ABUKA DCT TEDGO DCT BATUB DCT TIRUL M738 NATAG DCT LORLO DCT GAVRA DCT RITEB |
| Aircraft | B738/M-SDE2E3FGIRWY/LB1 |
Departure
| Time | 2026-05-01 14:45 |
|---|---|
| Airport | Amsterdam Airport Schiphol (EHAM) |
Arrival
| Time | N/A |
|---|---|
| Airport | Rome–Fiumicino Leonardo da Vinci International Airport (LIRF) |
| Time | Latitude | Longitude | Altitude | Speed | Heading |
|---|---|---|---|---|---|
| 2026-05-01 13:41 | 52.30930 | 4.76886 | 25 ft | 0 kts | 137° |
| 2026-05-01 14:34 | 52.30939 | 4.76872 | -2 ft | 4 kts | 141° |
| 2026-05-01 14:34 | 52.30961 | 4.76845 | -2 ft | 4 kts | 146° |
| 2026-05-01 14:34 | 52.30983 | 4.76820 | -2 ft | 4 kts | 139° |
| 2026-05-01 14:35 | 52.30997 | 4.76797 | -2 ft | 4 kts | 110° |
| 2026-05-01 14:35 | 52.31000 | 4.76755 | -2 ft | 4 kts | 83° |
| 2026-05-01 14:35 | 52.31002 | 4.76763 | -2 ft | 4 kts | 72° |
| 2026-05-01 14:35 | 52.31018 | 4.76796 | -2 ft | 4 kts | 44° |
| 2026-05-01 14:36 | 52.31039 | 4.76822 | -2 ft | 4 kts | 34° |
| 2026-05-01 14:36 | 52.31049 | 4.76833 | -2 ft | 1 kts | 33° |
| 2026-05-01 14:40 | 52.31056 | 4.76840 | -2 ft | 3 kts | 33° |
| 2026-05-01 14:40 | 52.31086 | 4.76874 | -2 ft | 8 kts | 34° |
| 2026-05-01 14:41 | 52.31148 | 4.76940 | -2 ft | 12 kts | 33° |
| 2026-05-01 14:41 | 52.31222 | 4.77019 | -2 ft | 13 kts | 33° |
| 2026-05-01 14:41 | 52.31294 | 4.77097 | -2 ft | 12 kts | 34° |
| 2026-05-01 14:41 | 52.31365 | 4.77174 | -2 ft | 12 kts | 30° |
| 2026-05-01 14:42 | 52.31446 | 4.77194 | -2 ft | 12 kts | 2° |
| 2026-05-01 14:42 | 52.31526 | 4.77200 | -2 ft | 11 kts | 4° |
| 2026-05-01 14:42 | 52.31577 | 4.77284 | -2 ft | 11 kts | 70° |
| 2026-05-01 14:42 | 52.31616 | 4.77400 | -2 ft | 13 kts | 56° |
| 2026-05-01 14:43 | 52.31671 | 4.77539 | -3 ft | 16 kts | 58° |
| 2026-05-01 14:43 | 52.31738 | 4.77674 | -2 ft | 15 kts | 30° |
| 2026-05-01 14:43 | 52.31840 | 4.77696 | -3 ft | 15 kts | 3° |
| 2026-05-01 14:43 | 52.31939 | 4.77706 | -2 ft | 14 kts | 5° |
| 2026-05-01 14:44 | 52.32026 | 4.77757 | -2 ft | 13 kts | 38° |
| 2026-05-01 14:44 | 52.32119 | 4.77979 | -2 ft | 13 kts | 115° |
| 2026-05-01 14:44 | 52.32037 | 4.78009 | -2 ft | 16 kts | 184° |
| 2026-05-01 14:45 | 52.31756 | 4.77982 | -2 ft | 75 kts | 183° |
| 2026-05-01 14:45 | 52.29976 | 4.77800 | 414 ft | 149 kts | 180° |
| 2026-05-01 14:45 | 52.28915 | 4.77753 | 1104 ft | 154 kts | 180° |
| 2026-05-01 14:46 | 52.27835 | 4.77743 | 1867 ft | 155 kts | 178° |
| 2026-05-01 14:46 | 52.26049 | 4.79748 | 3106 ft | 188 kts | 120° |
| 2026-05-01 14:46 | 52.25609 | 4.81852 | 3622 ft | 204 kts | 101° |
| 2026-05-01 14:47 | 52.25570 | 4.84266 | 3969 ft | 228 kts | 94° |
| 2026-05-01 14:47 | 52.25545 | 4.86904 | 4563 ft | 239 kts | 96° |
| 2026-05-01 14:47 | 52.25476 | 4.89751 | 4905 ft | 262 kts | 96° |
| 2026-05-01 14:48 | 52.25291 | 4.95875 | 6341 ft | 273 kts | 97° |
| 2026-05-01 14:48 | 52.25198 | 4.98996 | 7103 ft | 277 kts | 97° |
| 2026-05-01 14:48 | 52.25014 | 5.05332 | 8675 ft | 281 kts | 96° |
| 2026-05-01 14:49 | 52.24825 | 5.11801 | 10185 ft | 289 kts | 96° |
| 2026-05-01 14:49 | 52.24602 | 5.18669 | 10832 ft | 324 kts | 100° |
| 2026-05-01 14:50 | 52.23393 | 5.23216 | 11184 ft | 336 kts | 134° |
| 2026-05-01 14:50 | 52.18838 | 5.30322 | 13044 ft | 343 kts | 138° |
| 2026-05-01 14:51 | 52.17105 | 5.33028 | 13845 ft | 346 kts | 138° |
| 2026-05-01 14:51 | 52.13636 | 5.38489 | 15252 ft | 352 kts | 137° |
| 2026-05-01 14:52 | 52.10078 | 5.44126 | 16527 ft | 362 kts | 137° |
| 2026-05-01 14:52 | 52.08264 | 5.47011 | 17179 ft | 366 kts | 136° |
| 2026-05-01 14:52 | 52.04600 | 5.52852 | 18562 ft | 372 kts | 136° |
| 2026-05-01 14:53 | 52.02743 | 5.55812 | 19117 ft | 376 kts | 136° |
| 2026-05-01 14:53 | 52.00863 | 5.58809 | 19671 ft | 380 kts | 136° |
| 2026-05-01 14:53 | 51.98963 | 5.61831 | 20225 ft | 383 kts | 136° |
| 2026-05-01 14:53 | 51.97054 | 5.64867 | 20783 ft | 387 kts | 136° |
| 2026-05-01 14:54 | 51.95113 | 5.67948 | 21237 ft | 393 kts | 136° |
| 2026-05-01 14:54 | 51.93152 | 5.71059 | 21818 ft | 394 kts | 136° |
| 2026-05-01 14:54 | 51.91184 | 5.74176 | 22364 ft | 397 kts | 136° |
| 2026-05-01 14:54 | 51.89202 | 5.77311 | 22938 ft | 400 kts | 136° |
| 2026-05-01 14:55 | 51.87190 | 5.80490 | 23314 ft | 406 kts | 136° |
| 2026-05-01 14:55 | 51.85174 | 5.83669 | 23926 ft | 406 kts | 136° |
| 2026-05-01 14:55 | 51.83142 | 5.86872 | 24361 ft | 408 kts | 135° |
| 2026-05-01 14:55 | 51.81098 | 5.90086 | 24745 ft | 413 kts | 135° |
| 2026-05-01 14:56 | 51.79023 | 5.93348 | 25014 ft | 419 kts | 135° |
| 2026-05-01 14:56 | 51.76960 | 5.96585 | 25495 ft | 419 kts | 135° |
| 2026-05-01 14:56 | 51.74857 | 5.99879 | 25852 ft | 423 kts | 136° |
| 2026-05-01 14:56 | 51.72731 | 6.03207 | 26107 ft | 430 kts | 136° |
| 2026-05-01 14:57 | 51.70569 | 6.06585 | 26530 ft | 431 kts | 136° |
| 2026-05-01 14:57 | 51.66258 | 6.13307 | 27343 ft | 435 kts | 136° |
| 2026-05-01 14:57 | 51.64070 | 6.16711 | 27650 ft | 438 kts | 136° |
| 2026-05-01 14:58 | 51.61874 | 6.20123 | 28142 ft | 438 kts | 136° |
| 2026-05-01 14:58 | 51.59673 | 6.23538 | 28425 ft | 442 kts | 136° |
| 2026-05-01 14:58 | 51.58202 | 6.25818 | 28619 ft | 444 kts | 136° |
| 2026-05-01 14:58 | 51.55966 | 6.29279 | 28872 ft | 449 kts | 136° |
| 2026-05-01 14:59 | 51.53706 | 6.32773 | 29168 ft | 451 kts | 136° |
| 2026-05-01 14:59 | 51.51436 | 6.36277 | 29479 ft | 454 kts | 136° |
| 2026-05-01 14:59 | 51.49153 | 6.39795 | 29786 ft | 456 kts | 136° |
| 2026-05-01 14:59 | 51.46855 | 6.43332 | 30069 ft | 459 kts | 136° |
| 2026-05-01 15:00 | 51.42221 | 6.50448 | 30595 ft | 463 kts | 136° |
| 2026-05-01 15:00 | 51.39894 | 6.54012 | 30937 ft | 462 kts | 136° |
| 2026-05-01 15:00 | 51.37599 | 6.57523 | 31293 ft | 461 kts | 136° |
| 2026-05-01 15:01 | 51.35285 | 6.61058 | 31680 ft | 459 kts | 136° |
| 2026-05-01 15:01 | 51.32976 | 6.64581 | 32010 ft | 459 kts | 136° |
| 2026-05-01 15:01 | 51.30659 | 6.68109 | 32323 ft | 460 kts | 137° |
| 2026-05-01 15:01 | 51.28339 | 6.71638 | 32567 ft | 461 kts | 136° |
| 2026-05-01 15:02 | 51.26014 | 6.75170 | 32886 ft | 461 kts | 137° |
| 2026-05-01 15:02 | 51.24472 | 6.77508 | 33111 ft | 460 kts | 137° |
| 2026-05-01 15:02 | 51.21363 | 6.82217 | 33508 ft | 461 kts | 137° |
| 2026-05-01 15:02 | 51.19034 | 6.85739 | 33704 ft | 463 kts | 137° |
| 2026-05-01 15:03 | 51.16705 | 6.89256 | 34159 ft | 459 kts | 137° |
| 2026-05-01 15:03 | 51.14381 | 6.92759 | 34361 ft | 461 kts | 137° |
| 2026-05-01 15:03 | 51.12042 | 6.96280 | 34490 ft | 464 kts | 138° |
| 2026-05-01 15:03 | 51.09725 | 6.99763 | 34783 ft | 462 kts | 137° |
| 2026-05-01 15:04 | 51.07412 | 7.03236 | 35384 ft | 453 kts | 137° |
| 2026-05-01 15:04 | 51.05119 | 7.06675 | 35609 ft | 454 kts | 137° |
| 2026-05-01 15:04 | 51.02802 | 7.10143 | 35687 ft | 458 kts | 137° |
| 2026-05-01 15:04 | 51.00481 | 7.13611 | 35954 ft | 457 kts | 137° |
| 2026-05-01 15:05 | 50.98167 | 7.17064 | 36253 ft | 456 kts | 137° |
| 2026-05-01 15:05 | 50.95850 | 7.20517 | 36418 ft | 457 kts | 137° |
| 2026-05-01 15:05 | 50.93527 | 7.23974 | 36579 ft | 458 kts | 137° |
| 2026-05-01 15:05 | 50.91244 | 7.27368 | 37017 ft | 453 kts | 137° |
| 2026-05-01 15:06 | 50.88939 | 7.30789 | 37166 ft | 455 kts | 137° |
| 2026-05-01 15:06 | 50.86621 | 7.34225 | 37316 ft | 456 kts | 137° |
| 2026-05-01 15:06 | 50.84309 | 7.37646 | 37608 ft | 455 kts | 137° |
| 2026-05-01 15:06 | 50.82006 | 7.41050 | 37927 ft | 452 kts | 137° |
| 2026-05-01 15:07 | 50.79707 | 7.44443 | 38115 ft | 453 kts | 137° |
| 2026-05-01 15:07 | 50.77406 | 7.47836 | 38318 ft | 452 kts | 137° |
| 2026-05-01 15:07 | 50.75109 | 7.51217 | 38635 ft | 450 kts | 137° |
| 2026-05-01 15:07 | 50.72819 | 7.54563 | 38879 ft | 449 kts | 139° |
| 2026-05-01 15:08 | 50.70348 | 7.57602 | 38914 ft | 451 kts | 146° |
| 2026-05-01 15:08 | 50.65057 | 7.63014 | 39055 ft | 455 kts | 148° |
| 2026-05-01 15:08 | 50.62386 | 7.65688 | 39216 ft | 454 kts | 148° |
| 2026-05-01 15:09 | 50.59745 | 7.68351 | 39275 ft | 448 kts | 147° |
| 2026-05-01 15:09 | 50.54536 | 7.73667 | 39288 ft | 445 kts | 147° |
| 2026-05-01 15:10 | 50.49332 | 7.79015 | 39299 ft | 448 kts | 147° |
| 2026-05-01 15:10 | 50.41468 | 7.87083 | 39299 ft | 452 kts | 147° |
| 2026-05-01 15:11 | 50.33561 | 7.95158 | 39304 ft | 456 kts | 147° |
| 2026-05-01 15:12 | 50.28230 | 8.00583 | 39304 ft | 458 kts | 148° |
| 2026-05-01 15:12 | 50.20180 | 8.08748 | 39303 ft | 461 kts | 148° |
| 2026-05-01 15:14 | 50.06573 | 8.22016 | 39295 ft | 460 kts | 150° |
| 2026-05-01 15:14 | 49.98346 | 8.29524 | 39287 ft | 457 kts | 150° |
| 2026-05-01 15:15 | 49.87416 | 8.39590 | 39291 ft | 455 kts | 149° |
| 2026-05-01 15:16 | 49.82335 | 8.45374 | 39289 ft | 454 kts | 136° |
| 2026-05-01 15:16 | 49.77814 | 8.52180 | 39279 ft | 453 kts | 136° |
| 2026-05-01 15:17 | 49.73059 | 8.58567 | 39267 ft | 452 kts | 148° |
| 2026-05-01 15:18 | 49.64236 | 8.63177 | 39280 ft | 449 kts | 171° |
| 2026-05-01 15:19 | 49.51916 | 8.66395 | 39275 ft | 451 kts | 170° |
| 2026-05-01 15:19 | 49.42821 | 8.70237 | 39275 ft | 454 kts | 156° |
| 2026-05-01 15:20 | 49.34227 | 8.76367 | 39266 ft | 455 kts | 155° |
| 2026-05-01 15:21 | 49.28473 | 8.80415 | 39271 ft | 455 kts | 156° |
| 2026-05-01 15:21 | 49.22739 | 8.84390 | 39270 ft | 455 kts | 156° |
| 2026-05-01 15:22 | 49.14073 | 8.90357 | 39266 ft | 455 kts | 156° |
| 2026-05-01 15:22 | 49.08286 | 8.94330 | 39254 ft | 456 kts | 156° |
| 2026-05-01 15:23 | 49.02501 | 8.98293 | 39267 ft | 456 kts | 156° |
| 2026-05-01 15:23 | 48.96710 | 9.02250 | 39264 ft | 456 kts | 156° |
| 2026-05-01 15:24 | 48.90916 | 9.06200 | 39266 ft | 456 kts | 156° |
| 2026-05-01 15:24 | 48.85120 | 9.10141 | 39262 ft | 457 kts | 156° |
| 2026-05-01 15:25 | 48.79362 | 9.14046 | 39273 ft | 456 kts | 156° |
| 2026-05-01 15:25 | 48.73569 | 9.17965 | 39264 ft | 455 kts | 156° |
| 2026-05-01 15:26 | 48.67784 | 9.21870 | 39259 ft | 455 kts | 156° |
| 2026-05-01 15:26 | 48.62001 | 9.25760 | 39265 ft | 454 kts | 156° |
| 2026-05-01 15:27 | 48.56075 | 9.29077 | 39275 ft | 454 kts | 162° |
| 2026-05-01 15:28 | 48.47045 | 9.33521 | 39277 ft | 455 kts | 162° |
| 2026-05-01 15:28 | 48.41068 | 9.36532 | 39277 ft | 456 kts | 161° |
| 2026-05-01 15:29 | 48.32040 | 9.41139 | 39274 ft | 457 kts | 161° |
| 2026-05-01 15:30 | 48.19981 | 9.47269 | 39286 ft | 458 kts | 161° |
| 2026-05-01 15:31 | 48.01870 | 9.56637 | 39270 ft | 460 kts | 154° |
| 2026-05-01 15:32 | 47.91273 | 9.67173 | 39272 ft | 459 kts | 144° |
| 2026-05-01 15:34 | 47.75455 | 9.83358 | 39271 ft | 459 kts | 145° |